Flight Track Log - Related Links

Times and Time Zones

All times are in EDT time to prevent confusion due to time zone crossing. See the AAL963 flight status page for this flight to view local times or setup timezone preferences in your user account.

Time Position Orientation Groundspeed Altitude Reporting Facility
EDT Latitude Longitude Course Direction KTS MPH feet Rate Location/Type
Sun 09:09:24 PM 32.8620 -97.0510 180° South 203 234 1,800  Level FlightAware ADS-B
Sun 09:09:36 PM 32.8500 -97.0510 180° South 200 230 2,300 1,333 Climbing FlightAware ADS-B
Sun 09:10:00 PM 32.8270 -97.0520 182° South 222 255 2,600 955 Climbing FlightAware ADS-B
Sun 09:10:20 PM 32.8050 -97.0520 180° South 242 278 3,000 1,463 Climbing FlightAware ADS-B
Sun 09:10:41 PM 32.7830 -97.0530 182° South 251 289 3,600 1,650 Climbing FlightAware ADS-B
Sun 09:11:00 PM 32.7580 -97.0530 180° South 267 307 4,100 1,692 Climbing FlightAware ADS-B
Sun 09:11:20 PM 32.7320 -97.0530 180° South 280 322 4,700 2,063 Climbing FlightAware ADS-B
Sun 09:11:32 PM 32.7170 -97.0530 180° South 278 320 5,200 2,400 Climbing FlightAware ADS-B
Sun 09:11:50 PM 32.6980 -97.0540 183° South 276 318 5,900 2,609 Climbing FlightAware ADS-B
Sun 09:12:18 PM 32.6590 -97.0550 181° South 277 319 7,200 2,512 Climbing FlightAware ADS-B
Sun 09:12:33 PM 32.6390 -97.0550 180° South 282 325 7,700 2,118 Climbing FlightAware ADS-B
Sun 09:13:09 PM 32.5920 -97.0480 173° South 289 333 9,000 2,082 Climbing FlightAware ADS-B
Sun 09:13:22 PM 32.5790 -97.0390 150° Southeast 293 337 9,400 1,959 Climbing FlightAware ADS-B
Sun 09:13:58 PM 32.5370 -97.0030 144° Southeast 302 348 10,600 1,583 Climbing FlightAware ADS-B
Sun 09:14:34 PM 32.4930 -96.9700 148° Southeast 328 377 11,300 957 Climbing FlightAware ADS-B
Sun 09:15:07 PM 32.4510 -96.9390 148° Southeast 357 411 11,700 882 Climbing FlightAware ADS-B
Sun 09:15:42 PM 32.3970 -96.8990 148° Southeast 385 443 12,300 1,200 Climbing FlightAware ADS-B
Sun 09:16:12 PM 32.3520 -96.8660 148° Southeast 398 458 13,000 1,667 Climbing FlightAware ADS-B
Sun 09:16:54 PM 32.2820 -96.8160 149° Southeast 407 468 14,300 1,760 Climbing FlightAware ADS-B
Sun 09:17:27 PM 32.2230 -96.7890 159° South 417 480 15,200 1,913 Climbing FlightAware ADS-B
Sun 09:18:03 PM 32.1560 -96.7660 164° South 413 475 16,500 1,964 Climbing FlightAware ADS-B
Sun 09:18:22 PM 32.1194 -96.7527 163° South 421 484 17,000 1,811 Climbing FlightAware ADS-B
Sun 09:18:56 PM 32.0562 -96.7286 162° South 423 487 18,100 1,500 Climbing FlightAware ADS-B
Sun 09:19:26 PM 31.9986 -96.7068 162° South 436 502 18,600 1,364 Climbing FlightAware ADS-B
Sun 09:20:02 PM 31.9296 -96.6808 162° South 443 510 19,600 1,479 Climbing FlightAware ADS-B
Sun 09:20:39 PM 31.8570 -96.6531 162° South 447 514 20,400 1,324 Climbing FlightAware ADS-B
Sun 09:21:10 PM 31.7963 -96.6280 161° South 455 524 21,100 1,377 Climbing FlightAware ADS-B
Sun 09:21:40 PM 31.7362 -96.6028 160° South 460 529 21,800 1,400 Climbing FlightAware ADS-B
Sun 09:22:10 PM 31.6740 -96.5771 161° South 465 535 22,500 1,412 Climbing FlightAware ADS-B
Sun 09:24:13 PM 31.4216 -96.4772 162° South 476 548 25,400 1,364 Climbing FlightAware ADS-B
Sun 09:24:44 PM 31.3567 -96.4534 163° South 478 550 26,000 1,238 Climbing FlightAware ADS-B
Sun 09:25:16 PM 31.2881 -96.4280 162° South 482 555 26,700 1,133 Climbing FlightAware ADS-B
Sun 09:26:14 PM 31.1689 -96.3709 148° Southeast 488 562 27,700 1,024 Climbing FlightAware ADS-B
Sun 09:26:38 PM 31.1294 -96.3249 129° Southeast 490 564 28,100 1,091 Climbing FlightAware ADS-B
Sun 09:27:09 PM 31.0886 -96.2595 126° Southeast 494 568 28,700 1,043 Climbing FlightAware ADS-B
Sun 09:28:10 PM 31.0073 -96.1255 125° Southeast 499 574 29,700 1,121 Climbing FlightAware ADS-B
Sun 09:28:40 PM 30.9670 -96.0596 125° Southeast 498 573 30,400 839 Climbing FlightAware ADS-B
Sun 09:29:43 PM 30.8834 -95.9243 126° Southeast 491 565 31,000 383 Climbing FlightAware ADS-B
Sun 09:30:14 PM 30.8427 -95.8591 126° Southeast 492 566 31,000  Level FlightAware ADS-B
Sun 09:30:44 PM 30.8023 -95.7940 126° Southeast 493 567 31,000  Level FlightAware ADS-B
Sun 09:31:18 PM 30.7549 -95.7230 130° Southeast 492 566 31,000  Level FlightAware ADS-B
Sun 09:34:21 PM 30.4547 -95.3869 137° Southeast 494 568 31,000  Level FlightAware ADS-B
Sun 09:34:52 PM 30.4047 -95.3321 137° Southeast 495 570 31,000  Level FlightAware ADS-B
Sun 09:35:22 PM 30.3545 -95.2770 137° Southeast 495 570 31,000  Level FlightAware ADS-B
Sun 09:35:52 PM 30.3036 -95.2215 137° Southeast 496 571 31,000  Level FlightAware ADS-B
Sun 09:36:53 PM 30.2018 -95.1105 137° Southeast 494 568 31,000  Level FlightAware ADS-B
Sun 09:37:24 PM 30.1513 -95.0554 137° Southeast 493 567 31,000  Level FlightAware ADS-B
Sun 09:37:54 PM 30.1007 -95.0008 137° Southeast 494 568 31,000  Level FlightAware ADS-B
Sun 09:38:25 PM 30.0493 -94.9450 137° Southeast 494 568 31,000  Level FlightAware ADS-B
Sun 09:38:56 PM 29.9987 -94.8902 137° Southeast 494 568 31,000  Level FlightAware ADS-B
Sun 09:39:26 PM 29.9484 -94.8359 137° Southeast 494 568 31,000  Level FlightAware ADS-B
Sun 09:39:56 PM 29.8975 -94.7809 137° Southeast 494 568 31,000  Level FlightAware ADS-B
Sun 09:41:28 PM 29.7436 -94.6154 137° Southeast 495 570 31,000  Level FlightAware ADS-B
Sun 09:41:58 PM 29.6935 -94.5617 137° Southeast 496 571 31,000  Level FlightAware ADS-B
Sun 09:42:29 PM 29.6422 -94.5067 137° Southeast 496 571 31,000  Level FlightAware ADS-B
Sun 09:43:00 PM 29.5903 -94.4512 137° Southeast 497 572 31,000  Level FlightAware ADS-B
Sun 09:43:30 PM 29.5396 -94.3971 137° Southeast 497 572 31,000  Level FlightAware ADS-B
Sun 09:44:00 PM 29.4887 -94.3429 137° Southeast 497 572 31,000  Level FlightAware ADS-B
Sun 09:44:30 PM 29.4377 -94.2885 137° Southeast 497 572 31,000  Level FlightAware ADS-B
Sun 09:45:02 PM 29.3836 -94.2307 137° Southeast 497 572 31,000  Level FlightAware ADS-B
Sun 09:45:39 PM 29.3223 -94.1656 137° Southeast 497 572 31,000  Level FlightAware ADS-B
Sun 09:46:09 PM 29.2705 -94.1105 137° Southeast 496 571 31,000  Level FlightAware ADS-B
Sun 09:46:42 PM 29.2154 -94.0522 137° Southeast 494 568 31,000  Level FlightAware ADS-B
Sun 09:47:12 PM 29.1650 -93.9988 137° Southeast 494 568 31,000  Level FlightAware ADS-B
Sun 09:48:27 PM 29.0542 -93.8817 137° Southeast 492 566 31,000  Level Houston Center
Sun 09:49:29 PM 28.9556 -93.7781 137° Southeast 491 565 31,000  Level Houston Center
Sun 09:50:30 PM 28.8517 -93.6683 137° Southeast 494 568 31,000  Level Houston Center
Sun 09:51:31 PM 28.7511 -93.5625 137° Southeast 493 567 31,000  Level Houston Center
Sun 09:52:32 PM 28.6328 -93.4378 137° Southeast 495 570 31,000  Level Houston Center
Sun 09:53:33 PM 28.5286 -93.3306 138° Southeast 491 565 31,000  Level Houston Center
Sun 09:54:35 PM 28.4272 -93.2250 138° Southeast 494 568 31,000  Level Houston Center
Sun 09:55:36 PM 28.3306 -93.1236 137° Southeast 492 566 31,000  Level Houston Center
Sun 09:56:37 PM 28.2292 -93.0206 138° Southeast 490 564 31,000 -49 Level Houston Center
Sun 09:57:38 PM 28.1289 -92.9161 137° Southeast 490 564 30,900  Descending Houston Center
Sun 10:02:58 PM 27.5775 -92.3546 137° Southeast 487 560 31,000 Climbing FlightAware ADS-B
Sun 10:06:00 PM 27.2784 -92.0448 138° Southeast  Level FlightAware Approximate
Sun 10:07:00 PM 27.1782 -91.9448 138° Southeast  Level FlightAware Approximate
Sun 10:08:00 PM 27.0701 -91.8559 144° Southeast  Level FlightAware Approximate
Sun 10:09:00 PM 26.9611 -91.7686 144° Southeast  Level FlightAware Approximate
Sun 10:10:00 PM 26.8519 -91.6814 145° Southeast  Level FlightAware Approximate
Sun 10:11:00 PM 26.7428 -91.5945 145° Southeast  Level FlightAware Approximate
Sun 10:12:00 PM 26.6335 -91.5077 145° Southeast  Level FlightAware Approximate
Sun 10:13:00 PM 26.5242 -91.4210 145° Southeast  Level FlightAware Approximate
Sun 10:14:00 PM 26.4149 -91.3345 145° Southeast  Level FlightAware Approximate
Sun 10:15:00 PM 26.3053 -91.2486 145° Southeast  Level FlightAware Approximate
Sun 10:16:00 PM 26.1954 -91.1632 145° Southeast  Level FlightAware Approximate
Sun 10:17:00 PM 26.0854 -91.0779 145° Southeast  Level FlightAware Approximate
Sun 10:18:00 PM 25.9754 -90.9929 145° Southeast  Level FlightAware Approximate
Sun 10:19:00 PM 25.8653 -90.9080 145° Southeast  Level FlightAware Approximate
Sun 10:20:00 PM 25.7562 -90.8216 144° Southeast  Level FlightAware Approximate
Sun 10:21:00 PM 25.6474 -90.7349 145° Southeast  Level FlightAware Approximate
Sun 10:22:00 PM 25.5378 -90.6495 145° Southeast  Level FlightAware Approximate
Sun 10:23:00 PM 25.4281 -90.5642 145° Southeast  Level FlightAware Approximate
Sun 10:24:00 PM 25.3185 -90.4791 145° Southeast  Level FlightAware Approximate
Sun 10:25:00 PM 25.2087 -90.3942 145° Southeast  Level FlightAware Approximate
Sun 10:26:00 PM 25.0989 -90.3093 145° Southeast  Level FlightAware Approximate
Sun 10:27:00 PM 24.9891 -90.2247 145° Southeast  Level FlightAware Approximate
Sun 10:28:00 PM 24.8792 -90.1402 145° Southeast  Level FlightAware Approximate
Sun 10:29:00 PM 24.7693 -90.0558 145° Southeast  Level FlightAware Approximate
Sun 10:30:00 PM 24.6593 -89.9716 145° Southeast  Level FlightAware Approximate
Sun 10:31:00 PM 24.5492 -89.8876 145° Southeast  Level FlightAware Approximate
Sun 10:32:00 PM 24.4412 -89.8008 145° Southeast  Level FlightAware Approximate
Sun 10:33:00 PM 24.3315 -89.7164 145° Southeast  Level FlightAware Approximate
Sun 10:34:00 PM 24.2203 -89.6345 148° Southeast  Level FlightAware Approximate
Sun 10:35:00 PM 24.1070 -89.5561 148° Southeast  Level FlightAware Approximate
Sun 10:35:34 PM 24.0930 -89.5440 145° Southeast 479 551 31,000  Level FlightAware ADS-B
Sun 10:36:00 PM 23.9954 -89.4751 145° Southeast  Level FlightAware Approximate
Sun 10:36:16 PM 24.0120 -89.4830 145° Southeast 480 552 31,000  Level FlightAware ADS-B
Sun 10:37:02 PM 23.9350 -89.4230 145° Southeast 480 552 31,000  Level FlightAware ADS-B
Sun 10:37:37 PM 23.8810 -89.3800 144° Southeast 480 552 31,000  Level FlightAware ADS-B
Sun 10:38:34 PM 23.7480 -89.2520 139° Southeast 475 547 31,000  Level FlightAware ADS-B
Sun 10:38:43 PM 23.7540 -89.2580 318° Northwest 126 145 31,000  Level FlightAware ADS-B
Sun 10:39:47 PM 23.6490 -89.1630 140° Southeast 475 547 31,000  Level FlightAware ADS-B
Sun 10:40:21 PM 23.5910 -89.1110 141° Southeast 477 549 31,000  Level FlightAware ADS-B
Sun 10:41:03 PM 23.5130 -89.0410 141° Southeast 475 547 31,000  Level FlightAware ADS-B
Sun 10:41:45 PM 23.4430 -88.9780 140° Southeast 475 547 31,000  Level FlightAware ADS-B
Sun 10:42:40 PM 23.3480 -88.8940 141° Southeast 476 548 31,000  Level FlightAware ADS-B
Sun 10:43:14 PM 23.2870 -88.8390 140° Southeast 476 548 31,000  Level FlightAware ADS-B
Sun 10:43:44 PM 23.2380 -88.7950 140° Southeast 477 549 31,000  Level FlightAware ADS-B
Sun 10:44:26 PM 23.1680 -88.7320 140° Southeast 478 550 31,000  Level FlightAware ADS-B
Sun 10:45:02 PM 23.1080 -88.6790 141° Southeast 479 551 31,000  Level FlightAware ADS-B
Sun 10:45:41 PM 23.0390 -88.6180 141° Southeast 480 552 31,000  Level FlightAware ADS-B
Sun 10:46:19 PM 22.9730 -88.5590 141° Southeast 481 554 31,000  Level FlightAware ADS-B
Sun 10:46:48 PM 22.9220 -88.5130 140° Southeast 483 556 31,000  Level FlightAware ADS-B
Sun 10:47:26 PM 22.8570 -88.4550 141° Southeast 483 556 31,000  Level FlightAware ADS-B
Sun 10:48:02 PM 22.7960 -88.4010 141° Southeast 483 556 31,000  Level FlightAware ADS-B
Sun 10:48:38 PM 22.7330 -88.3460 141° Southeast 483 556 31,000  Level FlightAware ADS-B
Sun 10:49:09 PM 22.6770 -88.2970 141° Southeast 482 555 31,000  Level FlightAware ADS-B
Sun 10:49:45 PM 22.6240 -88.2500 141° Southeast 481 554 31,000  Level FlightAware ADS-B
Sun 10:50:21 PM 22.5520 -88.1860 141° Southeast 481 554 31,000  Level FlightAware ADS-B
Sun 10:50:56 PM 22.4980 -88.1390 141° Southeast 483 556 31,000  Level FlightAware ADS-B
Sun 10:51:28 PM 22.4490 -88.0960 141° Southeast 483 556 31,000  Level FlightAware ADS-B
Sun 10:52:08 PM 22.3490 -88.0070 141° Southeast 483 556 31,000  Level FlightAware ADS-B
Sun 10:52:51 PM 22.2740 -87.9420 141° Southeast 483 556 31,000  Level FlightAware ADS-B
Sun 10:53:22 PM 22.2310 -87.9040 141° Southeast 482 555 31,000  Level FlightAware ADS-B
Sun 10:54:02 PM 22.1510 -87.8340 141° Southeast 481 554 31,000  Level FlightAware ADS-B
Sun 10:54:44 PM 22.0780 -87.7700 141° Southeast 482 555 31,000  Level FlightAware ADS-B
Sun 10:55:15 PM 22.0260 -87.7250 141° Southeast 483 556 31,000  Level FlightAware ADS-B
Sun 10:55:50 PM 21.9710 -87.6770 141° Southeast 483 556 31,000  Level FlightAware ADS-B
Sun 10:56:28 PM 21.9030 -87.6170 141° Southeast 482 555 31,000  Level FlightAware ADS-B
Sun 10:57:07 PM 21.8320 -87.5550 141° Southeast 482 555 31,000  Level FlightAware ADS-B
Sun 10:57:43 PM 21.7680 -87.5000 141° Southeast 482 555 31,000  Level FlightAware ADS-B
Sun 10:58:18 PM 21.7060 -87.4470 142° Southeast 482 555 31,000  Level FlightAware ADS-B
Sun 10:59:00 PM 21.6330 -87.3830 141° Southeast 482 555 31,000  Level FlightAware ADS-B
Sun 10:59:35 PM 21.5730 -87.3310 141° Southeast 482 555 31,000  Level FlightAware ADS-B
Sun 11:00:09 PM 21.5080 -87.2740 141° Southeast 482 555 31,000  Level FlightAware ADS-B
Sun 11:00:47 PM 21.4410 -87.2170 142° Southeast 483 556 31,000  Level FlightAware ADS-B
Sun 11:01:23 PM 21.3780 -87.1630 141° Southeast 484 557 31,000  Level FlightAware ADS-B
Sun 11:01:55 PM 21.3230 -87.1150 141° Southeast 485 558 31,000  Level FlightAware ADS-B
Sun 11:02:31 PM 21.2590 -87.0600 141° Southeast 487 560 31,000  Level FlightAware ADS-B
Sun 11:03:07 PM 21.1950 -87.0050 141° Southeast 487 560 31,000  Level FlightAware ADS-B
Sun 11:03:39 PM 21.1440 -86.9530 136° Southeast 488 562 31,000  Level FlightAware ADS-B
Sun 11:04:15 PM 21.0920 -86.8850 129° Southeast 489 563 31,000  Level FlightAware ADS-B
Sun 11:04:51 PM 21.0400 -86.8190 130° Southeast 492 566 31,000  Level FlightAware ADS-B
Sun 11:05:23 PM 20.9930 -86.7570 129° Southeast 492 566 31,000  Level FlightAware ADS-B
Sun 11:06:00 PM 20.9410 -86.6910 130° Southeast 493 567 31,000  Level FlightAware ADS-B
Sun 11:06:35 PM 20.8900 -86.6240 129° Southeast 495 570 31,000  Level FlightAware ADS-B
Sun 11:07:08 PM 20.8430 -86.5630 129° Southeast 496 571 31,000  Level FlightAware ADS-B
Sun 11:07:45 PM 20.7890 -86.4930 130° Southeast 498 573 31,000  Level FlightAware ADS-B
Sun 11:08:22 PM 20.7350 -86.4230 130° Southeast 498 573 31,000  Level FlightAware ADS-B
Sun 11:08:57 PM 20.6830 -86.3540 129° Southeast 500 575 31,000  Level FlightAware ADS-B
Sun 11:09:29 PM 20.6360 -86.2940 130° Southeast 500 575 31,000  Level FlightAware ADS-B
Sun 11:10:06 PM 20.5820 -86.2230 129° Southeast 501 577 31,000  Level FlightAware ADS-B
Sun 11:10:40 PM 20.5380 -86.1660 129° Southeast 500 575 31,000  Level FlightAware ADS-B
Sun 11:11:19 PM 20.4900 -86.1020 129° Southeast 500 575 31,000  Level FlightAware ADS-B
Sun 11:11:59 PM 20.4390 -86.0250 125° Southeast 701 807 31,000 21 Level FlightAware ADS-B
Sun 11:14:00 PM 20.2423 -85.8275 137° Southeast  Level Estimated
Sun 11:15:00 PM 20.1447 -85.7297 137° Southeast  Level Estimated
Sun 11:16:00 PM 20.0471 -85.6320 137° Southeast  Level Estimated
Sun 11:17:00 PM 19.9494 -85.5345 137° Southeast  Level Estimated
Sun 11:18:00 PM 19.8516 -85.4371 137° Southeast  Level Estimated
Sun 11:19:00 PM 19.7538 -85.3398 137° Southeast  Level Estimated
Sun 11:20:00 PM 19.6559 -85.2426 137° Southeast  Level Estimated
Sun 11:21:00 PM 19.5580 -85.1456 137° Southeast  Level Estimated
Sun 11:22:00 PM 19.4600 -85.0487 137° Southeast  Level Estimated
Sun 11:23:00 PM 19.3620 -84.9518 137° Southeast  Level Estimated
Sun 11:24:00 PM 19.2639 -84.8551 137° Southeast  Level Estimated
Sun 11:25:00 PM 19.1658 -84.7586 137° Southeast  Level Estimated
Sun 11:26:00 PM 19.0676 -84.6621 137° Southeast  Level Estimated
Sun 11:27:00 PM 18.9693 -84.5657 137° Southeast  Level Estimated
Sun 11:28:00 PM 18.8711 -84.4695 137° Southeast  Level Estimated
Sun 11:29:00 PM 18.7727 -84.3734 137° Southeast  Level Estimated
Sun 11:30:00 PM 18.6744 -84.2774 137° Southeast  Level Estimated
Sun 11:31:00 PM 18.5759 -84.1814 137° Southeast  Level Estimated
Sun 11:32:00 PM 18.4774 -84.0857 137° Southeast  Level Estimated
Sun 11:33:00 PM 18.3789 -83.9900 137° Southeast  Level Estimated
Sun 11:34:00 PM 18.2803 -83.8944 137° Southeast  Level Estimated
Sun 11:35:00 PM 18.1817 -83.7989 137° Southeast  Level Estimated
Sun 11:36:00 PM 18.0831 -83.7036 137° Southeast  Level Estimated
Sun 11:37:00 PM 17.9844 -83.6083 137° Southeast  Level Estimated
Sun 11:38:00 PM 17.8856 -83.5132 137° Southeast  Level Estimated
Sun 11:39:00 PM 17.7868 -83.4182 138° Southeast  Level Estimated
Sun 11:40:00 PM 17.6879 -83.3232 138° Southeast  Level Estimated
Sun 11:41:00 PM 17.5890 -83.2284 138° Southeast  Level Estimated
Sun 11:42:00 PM 17.4901 -83.1337 138° Southeast  Level Estimated
Sun 11:43:00 PM 17.3911 -83.0390 138° Southeast  Level Estimated
Sun 11:44:00 PM 17.2921 -82.9445 138° Southeast  Level Estimated
Sun 11:45:00 PM 17.1930 -82.8501 138° Southeast  Level Estimated
Sun 11:46:00 PM 17.0939 -82.7558 138° Southeast  Level Estimated
Sun 11:47:00 PM 16.9947 -82.6616 138° Southeast  Level Estimated
Sun 11:48:00 PM 16.8955 -82.5675 138° Southeast  Level Estimated
Sun 11:49:00 PM 16.7962 -82.4734 138° Southeast  Level Estimated
Sun 11:50:00 PM 16.6970 -82.3795 138° Southeast  Level Estimated
Sun 11:51:00 PM 16.5976 -82.2857 138° Southeast  Level Estimated
Sun 11:52:00 PM 16.4982 -82.1920 138° Southeast  Level Estimated
Sun 11:53:00 PM 16.3988 -82.0983 138° Southeast  Level Estimated
Sun 11:54:00 PM 16.2994 -82.0048 138° Southeast  Level Estimated
Sun 11:55:00 PM 16.1999 -81.9114 138° Southeast  Level Estimated
Sun 11:56:00 PM 16.1003 -81.8180 138° Southeast  Level Estimated
Sun 11:57:00 PM 16.0007 -81.7248 138° Southeast  Level Estimated
Sun 11:58:00 PM 15.9011 -81.6316 138° Southeast  Level Estimated
Sun 11:59:00 PM 15.8015 -81.5386 138° Southeast  Level Estimated
Mon 12:00:00 AM 15.7018 -81.4456 138° Southeast  Level Estimated
Mon 12:01:00 AM 15.6020 -81.3527 138° Southeast  Level Estimated
Mon 12:02:00 AM 15.5022 -81.2599 138° Southeast  Level Estimated
Mon 12:03:00 AM 15.4024 -81.1672 138° Southeast  Level Estimated
Mon 12:04:00 AM 15.3026 -81.0746 138° Southeast  Level Estimated
Mon 12:05:00 AM 15.2027 -80.9821 138° Southeast  Level Estimated
Mon 12:06:00 AM 15.1027 -80.8896 138° Southeast  Level Estimated
Mon 12:07:00 AM 15.0028 -80.7973 138° Southeast  Level Estimated
Mon 12:08:00 AM 14.9028 -80.7050 138° Southeast  Level Estimated
Mon 12:09:00 AM 14.8027 -80.6128 138° Southeast  Level Estimated
Mon 12:10:00 AM 14.7027 -80.5208 138° Southeast  Level Estimated
Mon 12:11:00 AM 14.6025 -80.4287 138° Southeast  Level Estimated
Mon 12:12:00 AM 14.5024 -80.3368 138° Southeast  Level Estimated
Mon 12:13:00 AM 14.4022 -80.2450 138° Southeast  Level Estimated
Mon 12:14:00 AM 14.3020 -80.1532 138° Southeast  Level Estimated
Mon 12:15:00 AM 14.2017 -80.0615 138° Southeast  Level Estimated
Mon 12:16:00 AM 14.1014 -79.9699 138° Southeast  Level Estimated
Mon 12:17:00 AM 14.0011 -79.8784 138° Southeast  Level Estimated
Mon 12:18:00 AM 13.9007 -79.7870 139° Southeast  Level Estimated
Mon 12:19:00 AM 13.8003 -79.6956 139° Southeast  Level Estimated
Mon 12:20:00 AM 13.6999 -79.6043 139° Southeast  Level Estimated
Mon 12:21:00 AM 13.5994 -79.5131 139° Southeast  Level Estimated
Mon 12:22:00 AM 13.4989 -79.4220 139° Southeast  Level Estimated
Mon 12:23:00 AM 13.3984 -79.3310 139° Southeast  Level Estimated
Mon 12:24:00 AM 13.2978 -79.2400 139° Southeast  Level Estimated
Mon 12:25:00 AM 13.1973 -79.1491 139° Southeast  Level Estimated
Mon 12:26:00 AM 13.0966 -79.0583 139° Southeast  Level Estimated
Mon 12:27:00 AM 12.9960 -78.9675 139° Southeast  Level Estimated
Mon 12:28:00 AM 12.8953 -78.8769 139° Southeast  Level Estimated
Mon 12:29:00 AM 12.7946 -78.7863 139° Southeast  Level Estimated
Mon 12:30:00 AM 12.6938 -78.6957 139° Southeast  Level Estimated
Mon 12:31:00 AM 12.5930 -78.6053 139° Southeast  Level Estimated
Mon 12:32:00 AM 12.4922 -78.5149 139° Southeast  Level Estimated
Mon 12:33:00 AM 12.3914 -78.4246 139° Southeast  Level Estimated
Mon 12:34:00 AM 12.2905 -78.3344 139° Southeast  Level Estimated
Mon 12:35:00 AM 12.1896 -78.2442 139° Southeast  Level Estimated
Mon 12:36:00 AM 12.0887 -78.1541 139° Southeast  Level Estimated
Mon 12:37:00 AM 11.9877 -78.0640 139° Southeast  Level Estimated
Mon 12:38:00 AM 11.8867 -77.9741 139° Southeast  Level Estimated
Mon 12:39:00 AM 11.7857 -77.8842 139° Southeast  Level Estimated
Mon 12:40:00 AM 11.6847 -77.7943 139° Southeast  Level Estimated
Mon 12:41:00 AM 11.5836 -77.7046 139° Southeast  Level Estimated
Mon 12:42:00 AM 11.4825 -77.6148 139° Southeast  Level Estimated
Mon 12:43:00 AM 11.3814 -77.5252 139° Southeast  Level Estimated
Mon 12:44:00 AM 11.2802 -77.4356 139° Southeast  Level Estimated
Mon 12:44:31 AM 10.4320 -76.9260 139° Southeast 501 577 33,000  Level FlightAware ADS-B
Mon 12:45:00 AM 11.1790 -77.3461 139° Southeast  Level Estimated
Mon 12:45:06 AM 10.3680 -76.8660 137° Southeast 501 577 33,000  Level FlightAware ADS-B
Mon 12:45:42 AM 10.3090 -76.8110 137° Southeast 501 577 33,000  Level FlightAware ADS-B
Mon 12:46:17 AM 10.2470 -76.7540 138° Southeast 501 577 33,000  Level FlightAware ADS-B
Mon 12:46:59 AM 10.1810 -76.6930 138° Southeast 500 575 33,000  Level FlightAware ADS-B
Mon 12:47:39 AM 10.1080 -76.6260 138° Southeast 500 575 33,000  Level FlightAware ADS-B
Mon 12:48:17 AM 10.0490 -76.5710 137° Southeast 500 575 33,000  Level FlightAware ADS-B
Mon 12:49:00 AM 9.9770 -76.5040 137° Southeast 500 575 33,000  Level FlightAware ADS-B
Mon 12:49:39 AM 9.9210 -76.4510 137° Southeast 500 575 33,000  Level FlightAware ADS-B
Mon 12:50:35 AM 9.8180 -76.3550 137° Southeast 498 573 33,000  Level FlightAware ADS-B
Mon 12:51:09 AM 9.7520 -76.2950 138° Southeast 498 573 33,000  Level FlightAware ADS-B
Mon 12:51:39 AM 9.6970 -76.2450 138° Southeast 499 574 33,000  Level FlightAware ADS-B
Mon 12:52:19 AM 9.6280 -76.1820 138° Southeast 500 575 33,000  Level FlightAware ADS-B
Mon 12:52:54 AM 9.5700 -76.1270 137° Southeast 500 575 33,000  Level FlightAware ADS-B
Mon 12:53:29 AM 9.5160 -76.0780 138° Southeast 498 573 33,000  Level FlightAware ADS-B
Mon 12:54:04 AM 9.4530 -76.0200 138° Southeast 496 571 33,000  Level FlightAware ADS-B
Mon 12:54:41 AM 9.3910 -75.9620 137° Southeast 496 571 33,000  Level FlightAware ADS-B
Mon 12:55:19 AM 9.3230 -75.9000 138° Southeast 496 571 33,000  Level FlightAware ADS-B
Mon 12:55:59 AM 9.2640 -75.8280 130° Southeast 494 568 33,000  Level FlightAware ADS-B
Mon 12:56:29 AM 9.2260 -75.7760 127° Southeast 496 571 33,000  Level FlightAware ADS-B
Mon 12:57:04 AM 9.1740 -75.7070 127° Southeast 495 570 33,000  Level FlightAware ADS-B
Mon 12:57:39 AM 9.1250 -75.6430 128° Southeast 494 568 33,000  Level FlightAware ADS-B
Mon 12:58:19 AM 9.0730 -75.5710 126° Southeast 495 570 33,000  Level FlightAware ADS-B
Mon 12:58:49 AM 9.0340 -75.5180 127° Southeast 495 570 33,000  Level FlightAware ADS-B
Mon 12:59:24 AM 8.9830 -75.4490 127° Southeast 497 572 33,000  Level FlightAware ADS-B
Mon 12:59:59 AM 8.9370 -75.3840 126° Southeast 496 571 33,000  Level FlightAware ADS-B
Mon 01:00:34 AM 8.8890 -75.3170 126° Southeast 494 568 33,000  Level FlightAware ADS-B
Mon 01:01:09 AM 8.8440 -75.2520 125° Southeast 493 567 33,000  Level FlightAware ADS-B
Mon 01:01:44 AM 8.8040 -75.1800 119° Southeast 495 570 33,000  Level FlightAware ADS-B
Mon 01:02:24 AM 8.7590 -75.0990 119° Southeast 495 570 33,000  Level FlightAware ADS-B
Mon 01:02:54 AM 8.7260 -75.0440 121° Southeast 495 570 33,000  Level FlightAware ADS-B
Mon 01:03:29 AM 8.6720 -74.9780 130° Southeast 492 566 33,000  Level FlightAware ADS-B
Mon 01:04:09 AM 8.6130 -74.9070 130° Southeast 492 566 33,000  Level FlightAware ADS-B
Mon 01:04:39 AM 8.5690 -74.8540 130° Southeast 492 566 33,000  Level FlightAware ADS-B
Mon 01:05:14 AM 8.5190 -74.7930 130° Southeast 489 563 33,000  Level FlightAware ADS-B
Mon 01:05:49 AM 8.4670 -74.7310 130° Southeast 489 563 33,000  Level FlightAware ADS-B
Mon 01:06:29 AM 8.4090 -74.6620 130° Southeast 490 564 33,000  Level FlightAware ADS-B
Mon 01:06:59 AM 8.3700 -74.6160 131° Southeast 489 563 33,000  Level FlightAware ADS-B
Mon 01:07:34 AM 8.3150 -74.5480 129° Southeast 489 563 33,000  Level FlightAware ADS-B
Mon 01:08:09 AM 8.2640 -74.4860 130° Southeast 488 562 33,000  Level FlightAware ADS-B
Mon 01:08:49 AM 8.2060 -74.4160 130° Southeast 487 560 33,000  Level FlightAware ADS-B
Mon 01:09:19 AM 8.1630 -74.3630 129° Southeast 484 557 33,000  Level FlightAware ADS-B
Mon 01:09:59 AM 8.1070 -74.2940 129° Southeast 484 557 33,000  Level FlightAware ADS-B
Mon 01:10:29 AM 8.0640 -74.2410 129° Southeast 484 557 33,000  Level FlightAware ADS-B
Mon 01:11:04 AM 8.0170 -74.1790 127° Southeast 485 558 33,000  Level FlightAware ADS-B
Mon 01:11:48 AM 7.9620 -74.1070 128° Southeast 486 559 33,000  Level FlightAware ADS-B
Mon 01:12:24 AM 7.9070 -74.0340 127° Southeast 487 560 33,000  Level FlightAware ADS-B
Mon 01:13:14 AM 7.8390 -73.9440 127° Southeast 489 563 33,000  Level FlightAware ADS-B
Mon 01:13:49 AM 7.7980 -73.8860 126° Southeast 489 563 33,000  Level FlightAware ADS-B
Mon 01:14:25 AM 7.7590 -73.8290 125° Southeast 489 563 33,000  Level FlightAware ADS-B
Mon 01:15:01 AM 7.7190 -73.7710 125° Southeast 489 563 33,000  Level FlightAware ADS-B
Mon 01:15:37 AM 7.6790 -73.7140 125° Southeast 489 563 33,000  Level FlightAware ADS-B
Mon 01:16:13 AM 7.6390 -73.6570 125° Southeast 489 563 33,000  Level FlightAware ADS-B
Mon 01:16:49 AM 7.5710 -73.5370 120° Southeast 485 558 33,000  Level FlightAware ADS-B
Mon 01:17:25 AM 7.5350 -73.4830 124° Southeast 484 557 33,000  Level FlightAware ADS-B
Mon 01:18:02 AM 7.4960 -73.4250 124° Southeast 484 557 33,000  Level FlightAware ADS-B
Mon 01:18:38 AM 7.4580 -73.3670 123° Southeast 484 557 33,000  Level FlightAware ADS-B
Mon 01:19:14 AM 7.4190 -73.3100 125° Southeast 484 557 33,000  Level FlightAware ADS-B
Mon 01:19:50 AM 7.3810 -73.2530 124° Southeast 484 557 33,000  Level FlightAware ADS-B
Mon 01:20:26 AM 7.3430 -73.1950 123° Southeast 484 557 33,000  Level FlightAware ADS-B
Mon 01:21:02 AM 7.3040 -73.1380 125° Southeast 484 557 33,000  Level FlightAware ADS-B
Mon 01:21:38 AM 7.2660 -73.0810 124° Southeast 484 557 33,000  Level FlightAware ADS-B
Mon 01:22:14 AM 7.2280 -73.0240 124° Southeast 484 557 33,000  Level FlightAware ADS-B
Mon 01:22:50 AM 7.1900 -72.9660 123° Southeast 484 557 33,000  Level FlightAware ADS-B
Mon 01:23:26 AM 7.1510 -72.9090 125° Southeast 484 557 33,000  Level FlightAware ADS-B
Mon 01:24:02 AM 7.1130 -72.8520 124° Southeast 484 557 33,000  Level FlightAware ADS-B
Mon 01:24:38 AM 7.0750 -72.7950 124° Southeast 484 557 33,000  Level FlightAware ADS-B
Mon 01:25:14 AM 7.0360 -72.7370 124° Southeast 484 557 33,000  Level FlightAware ADS-B
Mon 01:25:50 AM 6.9980 -72.6800 124° Southeast 484 557 33,000  Level FlightAware ADS-B
Mon 01:26:27 AM 6.9590 -72.6210 124° Southeast 484 557 33,000 Level FlightAware ADS-B
Mon 01:29:00 AM 6.6935 -72.4025 141° Southeast  Level Estimated
Mon 01:30:00 AM 6.5894 -72.3168 141° Southeast  Level Estimated
Mon 01:31:00 AM 6.4853 -72.2312 141° Southeast  Level Estimated
Mon 01:32:00 AM 6.3811 -72.1457 141° Southeast  Level Estimated
Mon 01:33:00 AM 6.2769 -72.0602 141° Southeast  Level Estimated
Mon 01:34:00 AM 6.1728 -71.9747 141° Southeast  Level Estimated
Mon 01:35:00 AM 6.0686 -71.8892 141° Southeast  Level Estimated
Mon 01:36:00 AM 5.9644 -71.8038 141° Southeast  Level Estimated
Mon 01:37:00 AM 5.8601 -71.7184 141° Southeast  Level Estimated
Mon 01:38:00 AM 5.7559 -71.6330 141° Southeast  Level Estimated
Mon 01:39:00 AM 5.6516 -71.5477 141° Southeast  Level Estimated
Mon 01:40:00 AM 5.5474 -71.4624 141° Southeast  Level Estimated
Mon 01:41:00 AM 5.4431 -71.3771 141° Southeast  Level Estimated
Mon 01:42:00 AM 5.3388 -71.2919 141° Southeast  Level Estimated
Mon 01:43:00 AM 5.2345 -71.2067 141° Southeast  Level Estimated
Mon 01:44:00 AM 5.1302 -71.1215 141° Southeast  Level Estimated
Mon 01:45:00 AM 5.0259 -71.0363 141° Southeast  Level Estimated
Mon 01:46:00 AM 4.9216 -70.9512 141° Southeast  Level Estimated
Mon 01:47:00 AM 4.8178 -70.8666 141° Southeast  Level Estimated
Mon 01:48:00 AM 4.7140 -70.7820 141° Southeast  Level Estimated
Mon 01:49:00 AM 4.6102 -70.6974 141° Southeast  Level Estimated
Mon 01:50:00 AM 4.5064 -70.6128 141° Southeast  Level Estimated
Mon 01:51:00 AM 4.4026 -70.5283 141° Southeast  Level Estimated
Mon 01:52:00 AM 4.2987 -70.4437 141° Southeast  Level Estimated
Mon 01:53:00 AM 4.1949 -70.3593 141° Southeast  Level Estimated
Mon 01:54:00 AM 4.0910 -70.2748 141° Southeast  Level Estimated
Mon 01:55:00 AM 3.9872 -70.1903 141° Southeast  Level Estimated
Mon 01:56:00 AM 3.8833 -70.1059 141° Southeast  Level Estimated
Mon 01:57:00 AM 3.7794 -70.0215 141° Southeast  Level Estimated
Mon 01:58:00 AM 3.6756 -69.9371 141° Southeast  Level Estimated
Mon 01:59:00 AM 3.5717 -69.8527 141° Southeast  Level Estimated
Mon 02:00:00 AM 3.4678 -69.7684 141° Southeast  Level Estimated
Mon 02:01:00 AM 3.3639 -69.6841 141° Southeast  Level Estimated
Mon 02:02:00 AM 3.2599 -69.5997 141° Southeast  Level Estimated
Mon 02:03:00 AM 3.1560 -69.5154 141° Southeast  Level Estimated
Mon 02:04:00 AM 3.0521 -69.4312 141° Southeast  Level Estimated
Mon 02:05:00 AM 2.9482 -69.3469 141° Southeast  Level Estimated
Mon 02:06:00 AM 2.8442 -69.2626 141° Southeast  Level Estimated
Mon 02:07:00 AM 2.7403 -69.1784 141° Southeast  Level Estimated
Mon 02:08:00 AM 2.6363 -69.0942 141° Southeast  Level Estimated
Mon 02:09:00 AM 2.5324 -69.0100 141° Southeast  Level Estimated
Mon 02:10:00 AM 2.4284 -68.9258 141° Southeast  Level Estimated
Mon 02:11:00 AM 2.3246 -68.8418 141° Southeast  Level Estimated
Mon 02:12:00 AM 2.2208 -68.7578 141° Southeast  Level Estimated
Mon 02:13:00 AM 2.1170 -68.6738 141° Southeast  Level Estimated
Mon 02:14:00 AM 2.0133 -68.5898 141° Southeast  Level Estimated
Mon 02:15:00 AM 1.9095 -68.5058 141° Southeast  Level Estimated
Mon 02:16:00 AM 1.8056 -68.4218 141° Southeast  Level Estimated
Mon 02:17:00 AM 1.7018 -68.3379 141° Southeast  Level Estimated
Mon 02:18:00 AM 1.5980 -68.2539 141° Southeast  Level Estimated
Mon 02:19:00 AM 1.4942 -68.1700 141° Southeast  Level Estimated
Mon 02:20:00 AM 1.3904 -68.0861 141° Southeast  Level Estimated
Mon 02:21:00 AM 1.2866 -68.0021 141° Southeast  Level Estimated
Mon 02:22:00 AM 1.1827 -67.9182 141° Southeast  Level Estimated
Mon 02:23:00 AM 1.0789 -67.8343 141° Southeast  Level Estimated
Mon 02:24:00 AM 0.9751 -67.7504 141° Southeast  Level Estimated
Mon 02:25:00 AM 0.8712 -67.6665 141° Southeast  Level Estimated
Mon 02:26:00 AM 0.7674 -67.5826 141° Southeast  Level Estimated
Mon 02:27:00 AM 0.6636 -67.4987 141° Southeast  Level Estimated
Mon 02:28:00 AM 0.5597 -67.4148 141° Southeast  Level Estimated
Mon 02:29:00 AM 0.4559 -67.3309 141° Southeast  Level Estimated
Mon 02:30:00 AM 0.3521 -67.2470 141° Southeast  Level Estimated
Mon 02:31:00 AM 0.2482 -67.1631 141° Southeast  Level Estimated
Mon 02:32:00 AM 0.1444 -67.0793 141° Southeast  Level Estimated
Mon 02:33:00 AM 0.0405 -66.9954 141° Southeast  Level Estimated
Mon 02:34:00 AM -0.0633 -66.9115 141° Southeast  Level Estimated
Mon 02:35:00 AM -0.1672 -66.8276 141° Southeast  Level Estimated
Mon 02:36:00 AM -0.2710 -66.7438 141° Southeast  Level Estimated
Mon 02:37:00 AM -0.3748 -66.6599 141° Southeast  Level Estimated
Mon 02:38:00 AM -0.4787 -66.5760 141° Southeast  Level Estimated
Mon 02:39:00 AM -0.5825 -66.4921 141° Southeast  Level Estimated
Mon 02:40:00 AM -0.6863 -66.4082 141° Southeast  Level Estimated
Mon 02:41:00 AM -0.7902 -66.3243 141° Southeast  Level Estimated
Mon 02:42:00 AM -0.8940 -66.2404 141° Southeast  Level Estimated
Mon 02:43:00 AM -0.9979 -66.1565 141° Southeast  Level Estimated
Mon 02:44:00 AM -1.1017 -66.0726 141° Southeast  Level Estimated
Mon 02:45:00 AM -1.2055 -65.9887 141° Southeast  Level Estimated
Mon 02:46:00 AM -1.3093 -65.9048 141° Southeast  Level Estimated
Mon 02:47:00 AM -1.4131 -65.8208 141° Southeast  Level Estimated
Mon 02:48:00 AM -1.5170 -65.7369 141° Southeast  Level Estimated
Mon 02:49:00 AM -1.6208 -65.6530 141° Southeast  Level Estimated
Mon 02:50:00 AM -1.7246 -65.5690 141° Southeast  Level Estimated
Mon 02:51:00 AM -1.8284 -65.4850 141° Southeast  Level Estimated
Mon 02:52:00 AM -1.9322 -65.4011 141° Southeast  Level Estimated
Mon 02:53:00 AM -2.0360 -65.3171 141° Southeast  Level Estimated
Mon 02:54:00 AM -2.1398 -65.2331 141° Southeast  Level Estimated
Mon 02:55:00 AM -2.2436 -65.1491 141° Southeast  Level Estimated
Mon 02:56:00 AM -2.3474 -65.0651 141° Southeast  Level Estimated
Mon 02:57:00 AM -2.4512 -64.9811 141° Southeast  Level Estimated
Mon 02:58:00 AM -2.5549 -64.8970 141° Southeast  Level Estimated
Mon 02:59:00 AM -2.6587 -64.8130 141° Southeast  Level Estimated
Mon 03:00:00 AM -2.7625 -64.7289 141° Southeast  Level Estimated
Mon 03:01:00 AM -2.8662 -64.6448 141° Southeast  Level Estimated
Mon 03:02:00 AM -2.9700 -64.5607 141° Southeast  Level Estimated
Mon 03:03:00 AM -3.0737 -64.4766 141° Southeast  Level Estimated
Mon 03:04:00 AM -3.1775 -64.3925 141° Southeast  Level Estimated
Mon 03:05:00 AM -3.2812 -64.3083 141° Southeast  Level Estimated
Mon 03:06:00 AM -3.3849 -64.2242 141° Southeast  Level Estimated
Mon 03:07:00 AM -3.4887 -64.1400 141° Southeast  Level Estimated
Mon 03:08:00 AM -3.5924 -64.0558 141° Southeast  Level Estimated
Mon 03:09:00 AM -3.6961 -63.9716 141° Southeast  Level Estimated
Mon 03:10:00 AM -3.7998 -63.8873 141° Southeast  Level Estimated
Mon 03:11:00 AM -3.9035 -63.8031 141° Southeast  Level Estimated
Mon 03:12:00 AM -4.0071 -63.7188 141° Southeast  Level Estimated
Mon 03:13:00 AM -4.1108 -63.6345 141° Southeast  Level Estimated
Mon 03:14:00 AM -4.2145 -63.5502 141° Southeast  Level Estimated
Mon 03:15:00 AM -4.3181 -63.4658 141° Southeast  Level Estimated
Mon 03:16:00 AM -4.4218 -63.3814 141° Southeast  Level Estimated
Mon 03:17:00 AM -4.5254 -63.2970 141° Southeast  Level Estimated
Mon 03:18:00 AM -4.6290 -63.2126 141° Southeast  Level Estimated
Mon 03:19:00 AM -4.7326 -63.1282 141° Southeast  Level Estimated
Mon 03:20:00 AM -4.8362 -63.0437 141° Southeast  Level Estimated
Mon 03:21:00 AM -4.9398 -62.9592 141° Southeast  Level Estimated
Mon 03:22:00 AM -5.0434 -62.8747 141° Southeast  Level Estimated
Mon 03:23:00 AM -5.1470 -62.7901 141° Southeast  Level Estimated
Mon 03:24:00 AM -5.2505 -62.7056 141° Southeast  Level Estimated
Mon 03:25:00 AM -5.3541 -62.6210 141° Southeast  Level Estimated
Mon 03:26:00 AM -5.4576 -62.5363 141° Southeast  Level Estimated
Mon 03:27:00 AM -5.5611 -62.4517 141° Southeast  Level Estimated
Mon 03:28:00 AM -5.6646 -62.3670 141° Southeast  Level Estimated
Mon 03:29:00 AM -5.7681 -62.2823 141° Southeast  Level Estimated
Mon 03:30:00 AM -5.8716 -62.1975 141° Southeast  Level Estimated
Mon 03:31:00 AM -5.9751 -62.1127 141° Southeast  Level Estimated
Mon 03:32:00 AM -6.0782 -62.0282 141° Southeast  Level Estimated
Mon 03:33:00 AM -6.1813 -61.9437 141° Southeast  Level Estimated
Mon 03:34:00 AM -6.2844 -61.8591 141° Southeast  Level Estimated
Mon 03:35:00 AM -6.3874 -61.7745 141° Southeast  Level Estimated
Mon 03:36:00 AM -6.4904 -61.6898 141° Southeast  Level Estimated
Mon 03:37:00 AM -6.5935 -61.6052 141° Southeast  Level Estimated
Mon 03:38:00 AM -6.6965 -61.5204 141° Southeast  Level Estimated
Mon 03:39:00 AM -6.7995 -61.4357 141° Southeast  Level Estimated
Mon 03:40:00 AM -6.9025 -61.3509 141° Southeast  Level Estimated
Mon 03:41:00 AM -7.0054 -61.2661 141° Southeast  Level Estimated
Mon 03:42:00 AM -7.1084 -61.1812 141° Southeast  Level Estimated
Mon 03:43:00 AM -7.2113 -61.0963 141° Southeast  Level Estimated
Mon 03:44:00 AM -7.3142 -61.0114 141° Southeast  Level Estimated
Mon 03:45:00 AM -7.4171 -60.9264 141° Southeast  Level Estimated
Mon 03:46:00 AM -7.5200 -60.8414 141° Southeast  Level Estimated
Mon 03:47:00 AM -7.6231 -60.7562 141° Southeast  Level Estimated
Mon 03:48:00 AM -7.7261 -60.6709 141° Southeast  Level Estimated
Mon 03:49:00 AM -7.8292 -60.5856 141° Southeast  Level Estimated
Mon 03:50:00 AM -7.9321 -60.5003 141° Southeast  Level Estimated
Mon 03:51:00 AM -8.0351 -60.4149 141° Southeast  Level Estimated
Mon 03:52:00 AM -8.1381 -60.3295 141° Southeast  Level Estimated
Mon 03:53:00 AM -8.2411 -60.2440 141° Southeast  Level Estimated
Mon 03:54:00 AM -8.3440 -60.1585 141° Southeast  Level Estimated
Mon 03:55:00 AM -8.4469 -60.0730 141° Southeast  Level Estimated
Mon 03:56:00 AM -8.5498 -59.9874 141° Southeast  Level Estimated
Mon 03:57:00 AM -8.6527 -59.9017 141° Southeast  Level Estimated
Mon 03:58:00 AM -8.7556 -59.8160 141° Southeast  Level Estimated
Mon 03:59:00 AM -8.8584 -59.7303 141° Southeast  Level Estimated
Mon 04:00:00 AM -8.9612 -59.6445 141° Southeast  Level Estimated
Mon 04:01:00 AM -9.0640 -59.5587 140° Southeast  Level Estimated
Mon 04:02:00 AM -9.1668 -59.4728 140° Southeast  Level Estimated
Mon 04:03:00 AM -9.2696 -59.3868 140° Southeast  Level Estimated
Mon 04:04:00 AM -9.3723 -59.3008 140° Southeast  Level Estimated
Mon 04:05:00 AM -9.4750 -59.2148 140° Southeast  Level Estimated
Mon 04:06:00 AM -9.5777 -59.1287 140° Southeast  Level Estimated
Mon 04:07:00 AM -9.6804 -59.0426 140° Southeast  Level Estimated
Mon 04:08:00 AM -9.7830 -58.9564 140° Southeast  Level Estimated
Mon 04:09:00 AM -9.8857 -58.8701 140° Southeast  Level Estimated
Mon 04:10:00 AM -9.9883 -58.7838 140° Southeast  Level Estimated
Mon 04:11:00 AM -10.0909 -58.6975 140° Southeast  Level Estimated
Mon 04:12:00 AM -10.1934 -58.6111 140° Southeast  Level Estimated
Mon 04:13:00 AM -10.2960 -58.5246 140° Southeast  Level Estimated
Mon 04:14:00 AM -10.3985 -58.4381 140° Southeast  Level Estimated
Mon 04:15:00 AM -10.5010 -58.3515 140° Southeast  Level Estimated
Mon 04:16:00 AM -10.6035 -58.2649 140° Southeast  Level Estimated
Mon 04:17:00 AM -10.7059 -58.1782 140° Southeast  Level Estimated
Mon 04:18:00 AM -10.8084 -58.0914 140° Southeast  Level Estimated
Mon 04:19:00 AM -10.9108 -58.0046 140° Southeast  Level Estimated
Mon 04:20:00 AM -11.0131 -57.9177 140° Southeast  Level Estimated
Mon 04:21:00 AM -11.1155 -57.8308 140° Southeast  Level Estimated
Mon 04:22:00 AM -11.2178 -57.7438 140° Southeast  Level Estimated
Mon 04:23:00 AM -11.3201 -57.6567 140° Southeast  Level Estimated
Mon 04:24:00 AM -11.4224 -57.5696 140° Southeast  Level Estimated
Mon 04:25:00 AM -11.5246 -57.4824 140° Southeast  Level Estimated
Mon 04:26:00 AM -11.6269 -57.3952 140° Southeast  Level Estimated
Mon 04:27:00 AM -11.7291 -57.3079 140° Southeast  Level Estimated
Mon 04:28:00 AM -11.8313 -57.2205 140° Southeast  Level Estimated
Mon 04:29:00 AM -11.9334 -57.1331 140° Southeast  Level Estimated
Mon 04:30:00 AM -12.0355 -57.0456 140° Southeast  Level Estimated
Mon 04:31:00 AM -12.1376 -56.9580 140° Southeast  Level Estimated
Mon 04:32:00 AM -12.2397 -56.8704 140° Southeast  Level Estimated
Mon 04:33:00 AM -12.3417 -56.7827 140° Southeast  Level Estimated
Mon 04:34:00 AM -12.4437 -56.6949 140° Southeast  Level Estimated
Mon 04:35:00 AM -12.5457 -56.6071 140° Southeast  Level Estimated
Mon 04:36:00 AM -12.6476 -56.5192 140° Southeast  Level Estimated
Mon 04:37:00 AM -12.7496 -56.4312 140° Southeast  Level Estimated
Mon 04:38:00 AM -12.8515 -56.3431 140° Southeast  Level Estimated
Mon 04:39:00 AM -12.9533 -56.2550 140° Southeast  Level Estimated
Mon 04:40:00 AM -13.0552 -56.1668 140° Southeast  Level Estimated
Mon 04:41:00 AM -13.1570 -56.0785 140° Southeast  Level Estimated
Mon 04:42:00 AM -13.2587 -55.9902 140° Southeast  Level Estimated
Mon 04:43:00 AM -13.3605 -55.9018 140° Southeast  Level Estimated
Mon 04:44:00 AM -13.4622 -55.8133 140° Southeast  Level Estimated
Mon 04:45:00 AM -13.5639 -55.7247 140° Southeast  Level Estimated
Mon 04:46:00 AM -13.6655 -55.6361 140° Southeast  Level Estimated
Mon 04:47:00 AM -13.7671 -55.5474 140° Southeast  Level Estimated
Mon 04:48:00 AM -13.8687 -55.4586 140° Southeast  Level Estimated
Mon 04:49:00 AM -13.9703 -55.3697 140° Southeast  Level Estimated
Mon 04:50:00 AM -14.0718 -55.2807 140° Southeast  Level Estimated
Mon 04:51:00 AM -14.1733 -55.1917 140° Southeast  Level Estimated
Mon 04:52:00 AM -14.2748 -55.1026 140° Southeast  Level Estimated
Mon 04:53:00 AM -14.3762 -55.0134 140° Southeast  Level Estimated
Mon 04:54:00 AM -14.4776 -54.9241 140° Southeast  Level Estimated
Mon 04:55:00 AM -14.5789 -54.8348 140° Southeast  Level Estimated
Mon 04:56:00 AM -14.6803 -54.7453 140° Southeast  Level Estimated
Mon 04:57:00 AM -14.7816 -54.6558 139° Southeast  Level Estimated
Mon 04:58:00 AM -14.8828 -54.5662 139° Southeast  Level Estimated
Mon 04:59:00 AM -14.9840 -54.4765 139° Southeast  Level Estimated
Mon 05:00:00 AM -15.0852 -54.3868 139° Southeast  Level Estimated
Mon 05:01:00 AM -15.1864 -54.2969 139° Southeast  Level Estimated
Mon 05:02:00 AM -15.2875 -54.2070 139° Southeast  Level Estimated
Mon 05:03:00 AM -15.3886 -54.1169 139° Southeast  Level Estimated
Mon 05:04:00 AM -15.4896 -54.0268 139° Southeast  Level Estimated
Mon 05:05:00 AM -15.5906 -53.9366 139° Southeast  Level Estimated
Mon 05:06:00 AM -15.6916 -53.8463 139° Southeast  Level Estimated
Mon 05:07:00 AM -15.7925 -53.7559 139° Southeast  Level Estimated
Mon 05:08:00 AM -15.8934 -53.6655 139° Southeast  Level Estimated
Mon 05:09:00 AM -15.9943 -53.5749 139° Southeast  Level Estimated
Mon 05:10:00 AM -16.0951 -53.4842 139° Southeast  Level Estimated
Mon 05:11:00 AM -16.1959 -53.3935 139° Southeast  Level Estimated
Mon 05:12:00 AM -16.2966 -53.3027 139° Southeast  Level Estimated
Mon 05:13:00 AM -16.3973 -53.2117 139° Southeast  Level Estimated
Mon 05:14:00 AM -16.4980 -53.1207 139° Southeast  Level Estimated
Mon 05:15:00 AM -16.5986 -53.0296 139° Southeast  Level Estimated
Mon 05:16:00 AM -16.6992 -52.9384 139° Southeast  Level Estimated
Mon 05:17:00 AM -16.7997 -52.8470 139° Southeast  Level Estimated
Mon 05:18:00 AM -16.9002 -52.7556 139° Southeast  Level Estimated
Mon 05:19:00 AM -17.0007 -52.6641 139° Southeast  Level Estimated
Mon 05:20:00 AM -17.1011 -52.5725 139° Southeast  Level Estimated
Mon 05:21:00 AM -17.2015 -52.4808 139° Southeast  Level Estimated
Mon 05:22:00 AM -17.3018 -52.3890 139° Southeast  Level Estimated
Mon 05:23:00 AM -17.4021 -52.2971 139° Southeast  Level Estimated
Mon 05:24:00 AM -17.5024 -52.2051 139° Southeast  Level Estimated
Mon 05:25:00 AM -17.6026 -52.1130 139° Southeast  Level Estimated
Mon 05:26:00 AM -17.7028 -52.0208 139° Southeast  Level Estimated
Mon 05:27:00 AM -17.8029 -51.9285 139° Southeast  Level Estimated
Mon 05:28:00 AM -17.9030 -51.8360 139° Southeast  Level Estimated
Mon 05:29:00 AM -18.0030 -51.7435 139° Southeast  Level Estimated
Mon 05:30:00 AM -18.1030 -51.6509 139° Southeast  Level Estimated
Mon 05:31:00 AM -18.2030 -51.5582 139° Southeast  Level Estimated
Mon 05:32:00 AM -18.3029 -51.4653 139° Southeast  Level Estimated
Mon 05:32:31 AM -19.0750 -50.5900 139° Southeast 505 581 35,000  Level FlightAware ADS-B
Mon 05:33:00 AM -18.4028 -51.3724 139° Southeast  Level Estimated
Mon 05:33:11 AM -19.1430 -50.5170 135° Southeast 506 582 35,000  Level FlightAware ADS-B
Mon 05:33:44 AM -19.1980 -50.4560 134° Southeast 508 585 35,000  Level FlightAware ADS-B
Mon 05:34:20 AM -19.2560 -50.3930 134° Southeast 508 585 35,000  Level FlightAware ADS-B
Mon 05:34:57 AM -19.3180 -50.3260 134° Southeast 509 586 35,000  Level FlightAware ADS-B
Mon 05:35:28 AM -19.3670 -50.2730 134° Southeast 510 587 35,000  Level FlightAware ADS-B
Mon 05:36:05 AM -19.4300 -50.2040 134° Southeast 511 588 35,000  Level FlightAware ADS-B
Mon 05:36:34 AM -19.4770 -50.1520 134° Southeast 512 589 35,000  Level FlightAware ADS-B
Mon 05:37:29 AM -19.5660 -50.0560 135° Southeast 514 592 35,000  Level FlightAware ADS-B
Mon 05:38:03 AM -19.6260 -49.9900 134° Southeast 515 593 35,000  Level FlightAware ADS-B
Mon 05:38:37 AM -19.6800 -49.9300 134° Southeast 516 594 35,000  Level FlightAware ADS-B
Mon 05:39:19 AM -19.7470 -49.8570 134° Southeast 517 595 35,000  Level FlightAware ADS-B
Mon 05:39:52 AM -19.8020 -49.7970 134° Southeast 516 594 35,000  Level FlightAware ADS-B
Mon 05:40:46 AM -19.8720 -49.7190 134° Southeast 517 595 35,000  Level FlightAware ADS-B
Mon 05:41:25 AM -19.9580 -49.6250 134° Southeast 519 597 35,000  Level FlightAware ADS-B
Mon 05:42:01 AM -20.0170 -49.5610 134° Southeast 519 597 35,000  Level FlightAware ADS-B
Mon 05:42:32 AM -20.0720 -49.5000 134° Southeast 520 598 35,000  Level FlightAware ADS-B
Mon 05:43:40 AM -20.1810 -49.3790 134° Southeast 520 598 35,000  Level FlightAware ADS-B
Mon 05:44:15 AM -20.2430 -49.3100 134° Southeast 520 598 35,000  Level FlightAware ADS-B
Mon 05:44:49 AM -20.3010 -49.2460 134° Southeast 521 600 35,000  Level FlightAware ADS-B
Mon 05:45:34 AM -20.3770 -49.1610 134° Southeast 522 601 35,000  Level FlightAware ADS-B
Mon 05:46:07 AM -20.4300 -49.1020 134° Southeast 521 600 35,000  Level FlightAware ADS-B
Mon 05:46:44 AM -20.4980 -49.0340 137° Southeast 522 601 35,000  Level FlightAware ADS-B
Mon 05:47:20 AM -20.5610 -48.9740 138° Southeast 521 600 35,000  Level FlightAware ADS-B
Mon 05:47:52 AM -20.6190 -48.9200 139° Southeast 521 600 35,000  Level FlightAware ADS-B
Mon 05:48:28 AM -20.6850 -48.8590 139° Southeast 521 600 35,000  Level FlightAware ADS-B
Mon 05:49:02 AM -20.7490 -48.8020 140° Southeast 522 601 35,000  Level FlightAware ADS-B
Mon 05:49:40 AM -20.8190 -48.7380 139° Southeast 521 600 35,000  Level FlightAware ADS-B
Mon 05:50:12 AM -20.8770 -48.6850 140° Southeast 521 600 35,000  Level FlightAware ADS-B
Mon 05:50:48 AM -20.9430 -48.6250 140° Southeast 522 601 35,000  Level FlightAware ADS-B
Mon 05:51:24 AM -21.0100 -48.5640 140° Southeast 523 602 35,000  Level FlightAware ADS-B
Mon 05:52:00 AM -21.0760 -48.5020 139° Southeast 526 605 35,000 -273 Level FlightAware ADS-B
Mon 05:52:30 AM -21.1290 -48.4530 139° Southeast 528 608 34,700 -794 Descending FlightAware ADS-B
Mon 05:53:08 AM -21.2020 -48.3860 139° Southeast 535 616 34,100 -761 Descending FlightAware ADS-B
Mon 05:53:41 AM -21.2630 -48.3300 139° Southeast 535 616 33,800 -600 Descending FlightAware ADS-B
Mon 05:54:18 AM -21.3340 -48.2640 139° Southeast 532 612 33,400 -761 Descending FlightAware ADS-B
Mon 05:54:52 AM -21.3970 -48.2050 139° Southeast 530 610 32,900 -870 Descending FlightAware ADS-B
Mon 05:55:27 AM -21.4610 -48.1460 139° Southeast 528 608 32,400 -882 Descending FlightAware ADS-B
Mon 05:56:00 AM -21.5230 -48.0890 139° Southeast 524 603 31,900 -857 Descending FlightAware ADS-B
Mon 05:56:37 AM -21.5890 -48.0280 139° Southeast 521 600 31,400 -822 Descending FlightAware ADS-B
Mon 05:57:13 AM -21.6550 -47.9660 139° Southeast 518 596 30,900 -904 Descending FlightAware ADS-B
Mon 05:57:50 AM -21.7220 -47.9030 139° Southeast 515 593 30,300 -870 Descending FlightAware ADS-B
Mon 05:58:22 AM -21.7800 -47.8500 140° Southeast 513 590 29,900 -882 Descending FlightAware ADS-B
Mon 05:58:58 AM -21.8450 -47.7890 139° Southeast 511 588 29,300 -917 Descending FlightAware ADS-B
Mon 05:59:34 AM -21.9080 -47.7300 139° Southeast 508 585 28,800 -750 Descending FlightAware ADS-B
Mon 06:00:10 AM -21.9670 -47.6740 139° Southeast 506 582 28,400 -844 Descending FlightAware ADS-B
Mon 06:00:38 AM -22.0200 -47.6250 139° Southeast 503 579 27,900 -882 Descending FlightAware ADS-B
Mon 06:01:18 AM -22.0900 -47.5590 139° Southeast 498 573 27,400 -868 Descending FlightAware ADS-B
Mon 06:01:54 AM -22.1510 -47.5020 139° Southeast 493 567 26,800 -1,147 Descending FlightAware ADS-B
Mon 06:02:26 AM -22.2070 -47.4480 138° Southeast 487 560 26,100 -1,412 Descending FlightAware ADS-B
Mon 06:03:02 AM -22.2670 -47.3920 139° Southeast 481 554 25,200 -1,459 Descending FlightAware ADS-B
Mon 06:03:40 AM -22.3320 -47.3310 139° Southeast 473 544 24,300 -1,200 Descending FlightAware ADS-B
Mon 06:04:12 AM -22.3830 -47.2820 138° Southeast 454 522 23,800 -1,412 Descending FlightAware ADS-B
Mon 06:04:48 AM -22.4410 -47.2270 139° Southeast 445 512 22,700 -1,750 Descending FlightAware ADS-B
Mon 06:05:24 AM -22.4950 -47.1750 138° Southeast 436 502 21,700 -1,750 Descending FlightAware ADS-B
Mon 06:06:00 AM -22.5460 -47.1270 139° Southeast 427 491 20,600 -1,853 Descending FlightAware ADS-B
Mon 06:06:32 AM -22.6020 -47.0880 147° Southeast 414 476 19,600 -1,791 Descending FlightAware ADS-B
Mon 06:07:07 AM -22.6630 -47.0610 158° South 405 466 18,600 -1,667 Descending FlightAware ADS-B
Mon 06:07:44 AM -22.7220 -47.0370 159° South 398 458 17,600 -1,750 Descending FlightAware ADS-B
Mon 06:08:19 AM -22.7870 -47.0100 159° South 391 450 16,500 -1,791 Descending FlightAware ADS-B
Mon 06:08:51 AM -22.8410 -46.9870 159° South 386 444 15,600 -1,739 Descending FlightAware ADS-B
Mon 06:09:28 AM -22.9000 -46.9620 159° South 381 438 14,500 -2,000 Descending FlightAware ADS-B
Mon 06:10:03 AM -22.9600 -46.9370 159° South 380 437 13,200 -2,028 Descending FlightAware ADS-B
Mon 06:10:39 AM -23.0170 -46.9130 159° South 344 396 12,100 -1,765 Descending FlightAware ADS-B
Mon 06:11:11 AM -23.0620 -46.8940 159° South 320 368 11,200 -957 Descending FlightAware ADS-B
Mon 06:11:48 AM -23.1100 -46.8740 159° South 300 345 11,000 -162 Descending FlightAware ADS-B
Mon 06:12:25 AM -23.1590 -46.8530 158° South 304 350 11,000  Level FlightAware ADS-B
Mon 06:12:37 AM -23.1720 -46.8410 140° Southeast 307 353 11,000  Level FlightAware ADS-B
Mon 06:12:51 AM -23.1830 -46.8230 124° Southeast 311 358 11,000  Level FlightAware ADS-B
Mon 06:12:59 AM -23.1860 -46.8110 105° East 312 359 11,000  Level FlightAware ADS-B
Mon 06:13:38 AM -23.1790 -46.7510 83° East 312 359 11,000  Level FlightAware ADS-B
Mon 06:14:14 AM -23.1700 -46.6970 80° East 297 342 11,000  Level FlightAware ADS-B
Mon 06:14:51 AM -23.1800 -46.6480 103° East 259 298 11,000  Level FlightAware ADS-B
Mon 06:15:03 AM -23.1920 -46.6400 149° Southeast 254 292 11,000  Level FlightAware ADS-B
Mon 06:15:11 AM -23.2020 -46.6370 165° South 252 290 11,000  Level FlightAware ADS-B
Mon 06:15:35 AM -23.2260 -46.6450 197° South 246 283 11,000  Level FlightAware ADS-B
Mon 06:16:05 AM -23.2490 -46.6730 228° Southwest 243 280 11,000 -92 Level FlightAware ADS-B
Mon 06:16:40 AM -23.2640 -46.7120 247° West 240 276 10,900 -750 Descending FlightAware ADS-B
Mon 06:17:17 AM -23.2770 -46.7510 250° West 238 274 10,100 -1,636 Descending FlightAware ADS-B
Mon 06:17:35 AM -23.2860 -46.7720 245° Southwest 234 269 9,400 -2,400 Descending FlightAware ADS-B
Mon 06:17:52 AM -23.3020 -46.7840 215° Southwest 236 272 8,700 -2,400 Descending FlightAware ADS-B
Mon 06:18:00 AM -23.3100 -46.7850 187° South 239 275 8,400 -1,714 Descending FlightAware ADS-B
Mon 06:18:20 AM -23.3320 -46.7790 166° South 248 285 7,900 -1,350 Descending FlightAware ADS-B
Mon 06:18:40 AM -23.3520 -46.7700 158° South 248 285 7,500 -1,650 Descending FlightAware ADS-B
Mon 06:19:00 AM -23.3750 -46.7610 160° South 258 297 6,800 -1,500 Descending FlightAware ADS-B
Mon 06:19:24 AM -23.4020 -46.7490 158° South 252 290 6,400 -955 Descending FlightAware ADS-B
Mon 06:19:44 AM -23.4230 -46.7410 161° South 241 277 6,100 -1,071 Descending FlightAware ADS-B
Mon 06:19:52 AM -23.4310 -46.7370 155° Southeast 234 269 5,900 -1,500 Descending FlightAware ADS-B
Mon 06:20:00 AM -23.4380 -46.7320 147° Southeast 226 260 5,700 -618 Descending FlightAware ADS-B
Mon 06:21:00 AM -23.4750 -46.7000 142° Southeast 199 229 5,200 -316 Descending FlightAware ADS-B
Mon 06:21:35 AM -23.5070 -46.6710 140° Southeast 180 207 5,200  Level FlightAware ADS-B
Mon 06:21:39 AM -23.5080 -46.6680 110° East 177 204 5,200 -462 Level FlightAware ADS-B
Mon 06:21:48 AM -23.5100 -46.6600 105° East 177 204 5,100 -968 Descending FlightAware ADS-B
Mon 06:22:10 AM -23.5010 -46.6430 60° Northeast 169 194 4,700 -1,200 Descending FlightAware ADS-B
Mon 06:22:18 AM -23.4970 -46.6400 35° Northeast 166 191 4,500 -621 Descending FlightAware ADS-B
Mon 06:22:39 AM -23.4830 -46.6310 31° Northeast 167 192 4,400 -207 Descending FlightAware ADS-B
Mon 06:22:47 AM -23.4780 -46.6270 36° Northeast 164 189 4,400  Level FlightAware ADS-B
Mon 06:22:50 AM -23.4770 -46.6240 70° East 163 188 4,400  Level FlightAware ADS-B
Mon 06:22:58 AM -23.4750 -46.6180 70° East 162 186 4,400  Level FlightAware ADS-B
Mon 06:23:10 AM -23.4720 -46.6090 70° East 163 188 4,400 -231 Level FlightAware ADS-B
Mon 06:23:24 AM -23.4690 -46.5980 73° East 161 185 4,300 -581 Descending FlightAware ADS-B
Mon 06:24:12 AM -23.4630 -46.5760 73° East 158 182 3,800 -896 Descending FlightAware ADS-B
Mon 06:24:31 AM -23.4550 -46.5480 73° East 158 182 3,300 -1,091 Descending FlightAware ADS-B
Mon 06:24:56 AM -23.4500 -46.5280 75° East 158 182 3,000 -800 Descending FlightAware ADS-B
Mon 06:25:16 AM -23.4460 -46.5120 75° East 159 183 2,700 -800 Descending FlightAware ADS-B
Mon 06:25:41 AM -23.4410 -46.4940 73° East 159 183 2,400 -720 Descending FlightAware ADS-B
Mon 06:26:02 AM -23.4360 -46.4770 72° East 155 178 -6,857 Descending FlightAware ADS-B
Mon 06:26:32 AM -23.4320 -46.4610 75° East 150 173  Level FlightAware ADS-B

Login

Don't have an account? Register now (free) for customized features, flight alerts, and more!